Kristina — V7ZT9 — position and weather

sailwx.info

Track history (hours):
 
Tides and Currents Weather Stations Pressure Air Temp Water Temp Dewpoint Dewpoint Depression Visibility Wind Speed Wind Dir Waves Ship Positions

Kristina

Last reported at 2017-Nov-23 07:26 UTC. Time now 2017-Nov-23 07:40 UTC.
Position N 31°23' E 121°35'.

Length 270 m; draft 10.6 m.

Type: Ship (hazmat cat A). MMSI: 538004913.

Date/timePositionNaut miles runAvg speedWind from/ knotsBaromVisibWave heightAir tempDewpointWater temp
2017-Nov-23 07:26N 31°23' E 121°35'0 0.1
2017-Nov-23 06:59N 31°23' E 121°35'0 0.1
2017-Nov-23 06:29N 31°23' E 121°35'0 0.1
2017-Nov-23 05:56N 31°23' E 121°35'0 0.0
2017-Nov-23 05:26N 31°23' E 121°35'0 0.5
2017-Nov-23 05:00N 31°23' E 121°35'4 6.5
2017-Nov-23 04:26N 31°22' E 121°39'511.8
2017-Nov-23 04:00N 31°19' E 121°44'611.1
2017-Nov-23 03:30N 31°17' E 121°50'510.9
2017-Nov-23 03:00N 31°15' E 121°56'510.4
2017-Nov-23 02:30N 31°14' E 122°02'5 9.1
2017-Nov-23 02:00N 31°13' E 122°07'5 9.5
2017-Nov-23 01:30N 31°10' E 122°12'4 7.6
2017-Nov-23 01:01N 31°08' E 122°15'3 6.3
2017-Nov-23 00:30N 31°06' E 122°18'4 7.7
2017-Nov-23 00:00N 31°06' E 122°23'4 8.6
2017-Nov-22 23:30N 31°07' E 122°28'611.7
2017-Nov-22 23:00N 31°07' E 122°35'611.5
2017-Nov-22 22:30N 31°08' E 122°41'4 3.3
2017-Nov-22 21:22N 31°12' E 122°42'0 0.0
2017-Nov-22 20:52N 31°12' E 122°42'0 0.0
2017-Nov-22 20:28N 31°12' E 122°42'  
Track history (hours):
 
Tides and Currents Weather Stations Pressure Air Temp Water Temp Dewpoint Dewpoint Depression Visibility Wind Speed Wind Dir Waves Ship Positions

Kristina

Last reported at 2017-Nov-23 07:26 UTC. Time now 2017-Nov-23 07:40 UTC.
Position N 31°23' E 121°35'.

Length 270 m; draft 10.6 m.

Type: Ship (hazmat cat A). MMSI: 538004913.

Date/timePositionNaut miles runAvg speedWind from/ knotsBaromVisibWave heightAir tempDewpointWater temp
2017-Nov-23 07:26N 31°23' E 121°35'0 0.1
2017-Nov-23 06:59N 31°23' E 121°35'0 0.1
2017-Nov-23 06:29N 31°23' E 121°35'0 0.1
2017-Nov-23 05:56N 31°23' E 121°35'0 0.0
2017-Nov-23 05:26N 31°23' E 121°35'0 0.5
2017-Nov-23 05:00N 31°23' E 121°35'4 6.5
2017-Nov-23 04:26N 31°22' E 121°39'511.8
2017-Nov-23 04:00N 31°19' E 121°44'611.1
2017-Nov-23 03:30N 31°17' E 121°50'510.9
2017-Nov-23 03:00N 31°15' E 121°56'510.4
2017-Nov-23 02:30N 31°14' E 122°02'5 9.1
2017-Nov-23 02:00N 31°13' E 122°07'5 9.5
2017-Nov-23 01:30N 31°10' E 122°12'4 7.6
2017-Nov-23 01:01N 31°08' E 122°15'3 6.3
2017-Nov-23 00:30N 31°06' E 122°18'4 7.7
2017-Nov-23 00:00N 31°06' E 122°23'4 8.6
2017-Nov-22 23:30N 31°07' E 122°28'611.7
2017-Nov-22 23:00N 31°07' E 122°35'611.5
2017-Nov-22 22:30N 31°08' E 122°41'4 3.3
2017-Nov-22 21:22N 31°12' E 122°42'0 0.0
2017-Nov-22 20:52N 31°12' E 122°42'0 0.0
2017-Nov-22 20:28N 31°12' E 122°42'  

Dump ship's entire track history